createdAt,value
2023-06-14T00:01:00.828Z,58.70
2023-06-14T00:03:27.703Z,59.10
2023-06-14T00:05:54.676Z,59.00
2023-06-14T00:08:21.578Z,58.90
2023-06-14T00:10:48.635Z,58.80
2023-06-14T00:13:16.805Z,58.90
2023-06-14T00:15:43.583Z,59.10
2023-06-14T00:18:10.484Z,59.30
2023-06-14T00:20:37.277Z,59.60
2023-06-14T00:23:04.119Z,59.40
2023-06-14T00:25:31.052Z,59.50
2023-06-14T00:27:59.810Z,59.70
2023-06-14T00:30:28.290Z,59.90
2023-06-14T00:32:55.218Z,60.10
2023-06-14T00:35:22.098Z,60.40
2023-06-14T00:37:48.874Z,60.60
2023-06-14T00:40:15.988Z,60.80
2023-06-14T00:42:43.051Z,60.90
2023-06-14T00:45:11.153Z,60.90
2023-06-14T00:47:42.195Z,61.00
2023-06-14T00:50:10.666Z,61.50
2023-06-14T00:52:37.498Z,62.00
2023-06-14T00:55:05.016Z,62.30
2023-06-14T00:57:31.973Z,62.60
2023-06-14T00:59:58.861Z,62.50
2023-06-14T01:02:25.824Z,62.60
2023-06-14T01:04:54.570Z,63.20
2023-06-14T01:07:30.767Z,62.80
2023-06-14T01:10:09.415Z,62.90
2023-06-14T01:12:45.746Z,63.00
2023-06-14T01:15:14.378Z,63.00
2023-06-14T01:17:42.556Z,63.00
2023-06-14T01:20:12.485Z,63.10
2023-06-14T01:22:45.866Z,63.00
2023-06-14T01:25:12.779Z,63.10
2023-06-14T01:27:39.667Z,63.20
2023-06-14T01:30:09.389Z,63.10
2023-06-14T01:32:36.760Z,63.30
2023-06-14T01:35:04.310Z,63.50
2023-06-14T01:37:31.654Z,63.50
2023-06-14T01:40:00.202Z,63.50
2023-06-14T01:42:27.350Z,63.50
2023-06-14T01:44:56.010Z,63.80
2023-06-14T01:47:23.195Z,64.10
2023-06-14T01:49:49.988Z,64.50
2023-06-14T01:52:16.872Z,64.50
2023-06-14T01:54:43.701Z,64.70
2023-06-14T01:57:12.523Z,64.80
2023-06-14T01:59:39.356Z,65.00
2023-06-14T02:02:06.411Z,65.30
2023-06-14T02:04:33.314Z,65.70
2023-06-14T02:07:00.218Z,66.10
2023-06-14T02:09:27.169Z,66.60
2023-06-14T02:11:53.947Z,66.90
2023-06-14T02:14:22.107Z,67.10
2023-06-14T02:16:48.935Z,67.30
2023-06-14T02:19:16.124Z,67.80
2023-06-14T02:21:43.028Z,68.30
2023-06-14T02:24:09.878Z,68.30
2023-06-14T02:26:36.820Z,68.40
2023-06-14T02:29:03.612Z,68.20
2023-06-14T02:31:31.938Z,68.20
2023-06-14T02:33:58.800Z,68.20
2023-06-14T02:36:25.576Z,68.30
2023-06-14T02:38:52.369Z,68.30
2023-06-14T02:41:19.212Z,68.50
2023-06-14T02:43:46.037Z,68.40
2023-06-14T02:46:12.894Z,68.50
2023-06-14T02:48:41.178Z,68.60
2023-06-14T02:51:08.067Z,68.70
2023-06-14T02:53:34.978Z,68.80
2023-06-14T02:56:01.786Z,68.70
2023-06-14T02:58:28.646Z,68.70
2023-06-14T03:00:55.437Z,69.40
2023-06-14T03:03:22.524Z,69.60
2023-06-14T03:05:51.321Z,69.70
2023-06-14T03:08:18.522Z,70.10
2023-06-14T03:10:45.502Z,70.40
2023-06-14T03:13:12.291Z,70.60
2023-06-14T03:15:39.088Z,71.00
2023-06-14T03:18:06.099Z,70.10
2023-06-14T03:20:32.944Z,70.20
2023-06-14T03:23:01.539Z,70.30
2023-06-14T03:25:28.301Z,70.50
2023-06-14T03:27:55.109Z,70.40
2023-06-14T03:30:22.120Z,70.40
2023-06-14T03:32:49.177Z,70.10
2023-06-14T03:35:16.242Z,69.90
2023-06-14T03:37:43.101Z,70.20
2023-06-14T03:40:13.877Z,70.20
2023-06-14T03:42:40.932Z,70.30
2023-06-14T03:45:08.683Z,70.50
2023-06-14T03:47:36.178Z,70.60
2023-06-14T03:50:03.208Z,70.90
2023-06-14T03:52:30.252Z,71.30
2023-06-14T03:55:55.584Z,71.30
2023-06-14T03:57:45.316Z,71.40
2023-06-14T04:00:13.340Z,71.30
2023-06-14T04:02:40.218Z,71.40
2023-06-14T04:05:07.566Z,71.30
2023-06-14T04:07:34.385Z,71.40
2023-06-14T04:10:01.254Z,71.40
2023-06-14T04:12:28.107Z,71.40
2023-06-14T04:15:00.122Z,71.60
2023-06-14T04:17:31.785Z,71.50
2023-06-14T04:19:58.591Z,71.30
2023-06-14T04:22:25.402Z,71.20
2023-06-14T04:25:00.729Z,70.90
2023-06-14T04:27:31.921Z,70.40
2023-06-14T04:30:00.166Z,69.90
2023-06-14T04:32:27.712Z,69.60
2023-06-14T04:34:55.183Z,69.30
2023-06-14T04:37:22.125Z,69.00
2023-06-14T04:39:49.085Z,68.70
2023-06-14T04:42:16.168Z,68.50
2023-06-14T04:44:43.473Z,68.30
2023-06-14T04:47:11.795Z,68.20
2023-06-14T04:49:38.719Z,68.00
2023-06-14T04:52:06.250Z,67.80
2023-06-14T04:54:33.216Z,67.70
2023-06-14T04:57:00.114Z,67.50
2023-06-14T04:59:26.956Z,67.40
2023-06-14T05:01:53.829Z,67.30
2023-06-14T05:04:22.160Z,67.10
2023-06-14T05:06:49.090Z,66.90
2023-06-14T05:09:16.422Z,66.70
2023-06-14T05:11:43.361Z,66.80
2023-06-14T05:14:10.291Z,66.60
2023-06-14T05:16:37.153Z,66.30
2023-06-14T05:19:04.082Z,66.20
2023-06-14T05:21:32.967Z,66.20
2023-06-14T05:24:01.506Z,66.00
2023-06-14T05:26:28.486Z,65.90
2023-06-14T05:28:55.678Z,65.80
2023-06-14T05:31:22.524Z,65.60
2023-06-14T05:33:49.397Z,65.50
2023-06-14T05:36:16.364Z,65.50
2023-06-14T05:38:44.634Z,65.40
2023-06-14T05:41:11.692Z,65.20
2023-06-14T05:43:38.575Z,65.00
2023-06-14T05:46:05.722Z,65.10
2023-06-14T05:48:34.920Z,65.50
2023-06-14T05:51:01.745Z,64.60
2023-06-14T05:53:28.597Z,64.30
2023-06-14T05:55:56.815Z,64.10
2023-06-14T05:58:23.679Z,64.10
2023-06-14T06:00:50.483Z,64.00
2023-06-14T06:03:17.425Z,63.80
2023-06-14T06:05:44.302Z,64.00
2023-06-14T06:08:11.162Z,63.80
2023-06-14T06:10:38.196Z,63.60
2023-06-14T06:13:06.405Z,63.30
2023-06-14T06:15:33.224Z,63.00
2023-06-14T06:18:00.210Z,62.80
2023-06-14T06:20:27.140Z,62.50
2023-06-14T06:22:54.006Z,62.30
2023-06-14T06:25:20.912Z,62.00
2023-06-14T06:27:47.705Z,62.10
2023-06-14T06:30:16.907Z,61.90
2023-06-14T06:32:43.989Z,61.90
2023-06-14T06:35:10.960Z,61.70
2023-06-14T06:37:37.957Z,61.50
2023-06-14T06:40:05.605Z,61.40
2023-06-14T06:42:32.588Z,61.10
2023-06-14T06:44:59.456Z,61.00
2023-06-14T06:47:27.702Z,60.70
2023-06-14T06:49:54.623Z,61.10
2023-06-14T06:52:28.883Z,60.40
2023-06-14T06:54:57.087Z,60.10
2023-06-14T06:57:24.227Z,60.00
2023-06-14T06:59:51.156Z,60.00
2023-06-14T07:02:18.236Z,59.70
2023-06-14T07:04:47.007Z,59.60
2023-06-14T07:07:15.833Z,59.40
2023-06-14T07:09:42.761Z,59.50
2023-06-14T07:12:09.916Z,59.50
2023-06-14T07:14:36.734Z,59.70
2023-06-14T07:17:03.890Z,59.30
2023-06-14T07:19:30.698Z,58.80
2023-06-14T07:21:58.923Z,58.50
2023-06-14T07:24:26.297Z,58.50
2023-06-14T07:26:53.344Z,58.40
2023-06-14T07:29:20.854Z,58.20
2023-06-14T07:31:47.987Z,58.20
2023-06-14T07:34:14.901Z,58.10
2023-06-14T07:36:41.724Z,57.70
2023-06-14T07:39:09.930Z,56.80
2023-06-14T07:41:36.746Z,57.30
2023-06-14T07:44:03.921Z,56.70
2023-06-14T07:46:30.878Z,56.20
2023-06-14T07:48:57.924Z,55.70
2023-06-14T07:51:24.838Z,55.50
2023-06-14T07:53:51.715Z,55.10
2023-06-14T07:56:19.955Z,54.50
2023-06-14T07:58:46.796Z,54.10
2023-06-14T08:01:13.620Z,53.90
2023-06-14T08:03:40.732Z,53.20
2023-06-14T08:06:08.313Z,52.80
2023-06-14T08:08:36.228Z,52.90
2023-06-14T08:11:04.038Z,52.60
2023-06-14T08:13:32.234Z,52.00
2023-06-14T08:15:59.126Z,50.70
2023-06-14T08:18:26.087Z,50.50
2023-06-14T08:20:53.088Z,50.20
2023-06-14T08:23:20.281Z,49.60
2023-06-14T08:25:47.127Z,48.20
2023-06-14T08:28:13.973Z,48.30
2023-06-14T08:30:43.101Z,48.20
2023-06-14T08:33:16.744Z,47.70
2023-06-14T08:35:44.767Z,46.20
2023-06-14T08:38:11.667Z,46.60
2023-06-14T08:40:40.675Z,46.70
2023-06-14T08:43:07.836Z,46.20
2023-06-14T08:45:34.900Z,45.80
2023-06-14T08:48:03.471Z,45.00
2023-06-14T08:50:32.356Z,46.00
2023-06-14T08:53:01.649Z,45.40
2023-06-14T08:55:29.134Z,44.90
2023-06-14T08:57:58.297Z,44.60
2023-06-14T09:00:26.345Z,44.50
2023-06-14T09:02:53.631Z,44.30
2023-06-14T09:05:21.957Z,44.30
2023-06-14T09:07:48.817Z,44.10
2023-06-14T09:10:17.040Z,44.10
2023-06-14T09:12:44.165Z,44.50
2023-06-14T09:15:11.257Z,44.30
2023-06-14T09:17:38.676Z,44.20
2023-06-14T09:20:07.753Z,43.10
2023-06-14T09:22:36.219Z,42.80
2023-06-14T09:25:03.442Z,42.70
2023-06-14T09:27:30.644Z,43.30
2023-06-14T09:29:57.543Z,43.70
2023-06-14T09:32:25.890Z,42.90
2023-06-14T09:34:53.210Z,43.30
2023-06-14T09:37:29.998Z,43.60
2023-06-14T09:39:58.906Z,43.90
2023-06-14T09:42:26.092Z,44.00
2023-06-14T09:44:54.377Z,43.80
2023-06-14T09:47:21.833Z,43.70
2023-06-14T09:49:49.193Z,43.70
2023-06-14T09:52:18.331Z,43.30
2023-06-14T09:54:46.480Z,42.80
2023-06-14T09:57:16.720Z,42.40
2023-06-14T09:59:45.277Z,41.90
2023-06-14T10:02:19.011Z,41.60
2023-06-14T10:04:51.120Z,41.40
2023-06-14T10:07:21.442Z,41.30
2023-06-14T10:09:48.724Z,40.90
2023-06-14T10:12:18.208Z,40.40
2023-06-14T10:14:45.391Z,40.40
2023-06-14T10:17:18.356Z,40.50
2023-06-14T10:19:52.891Z,39.70
2023-06-14T10:22:23.841Z,39.70
2023-06-14T10:24:50.675Z,39.40
2023-06-14T10:27:18.905Z,39.00
2023-06-14T10:30:08.920Z,38.40
2023-06-14T10:32:35.807Z,38.10
2023-06-14T10:35:06.566Z,38.00
2023-06-14T10:37:33.638Z,38.00
2023-06-14T10:40:00.665Z,37.90
2023-06-14T10:42:33.782Z,37.90
2023-06-14T10:45:01.923Z,37.30
2023-06-14T10:47:30.271Z,37.60
2023-06-14T10:49:58.670Z,37.90
2023-06-14T10:52:28.086Z,38.10
2023-06-14T10:55:02.288Z,38.60
2023-06-14T10:57:32.866Z,39.30
2023-06-14T11:00:05.092Z,40.40
2023-06-14T11:02:53.816Z,41.00
2023-06-14T11:05:25.563Z,41.60
2023-06-14T11:08:10.587Z,41.00
2023-06-14T11:10:38.702Z,39.20
2023-06-14T11:13:07.760Z,38.60
2023-06-14T11:15:36.294Z,38.70
2023-06-14T11:18:05.267Z,39.10
2023-06-14T11:20:33.705Z,39.50
2023-06-14T11:23:00.925Z,39.60
2023-06-14T11:25:28.193Z,40.10
2023-06-14T11:27:55.616Z,39.10
2023-06-14T11:30:24.369Z,39.10
2023-06-14T11:32:54.364Z,38.70
2023-06-14T11:35:24.101Z,39.10
2023-06-14T11:37:54.127Z,39.10
2023-06-14T11:40:20.966Z,39.00
2023-06-14T11:42:47.786Z,38.20
2023-06-14T11:45:14.606Z,38.70
2023-06-14T11:47:42.822Z,38.70
2023-06-14T11:50:10.963Z,38.90
2023-06-14T11:52:38.454Z,39.00
2023-06-14T11:55:06.844Z,38.80
2023-06-14T11:57:35.733Z,38.60
2023-06-14T12:00:04.740Z,38.20
2023-06-14T12:02:32.863Z,38.20
2023-06-14T12:05:05.644Z,37.90
2023-06-14T12:07:32.513Z,37.10
2023-06-14T12:10:06.364Z,37.10
2023-06-14T12:12:37.276Z,37.20
2023-06-14T12:15:05.193Z,37.70
2023-06-14T12:17:33.860Z,37.30
2023-06-14T12:20:06.960Z,37.30
2023-06-14T12:22:33.940Z,37.00
2023-06-14T12:25:00.881Z,36.90
2023-06-14T12:27:27.808Z,36.70
2023-06-14T12:30:00.565Z,37.00
2023-06-14T12:32:27.900Z,37.30
2023-06-14T12:34:55.155Z,37.40
2023-06-14T12:37:23.815Z,37.20
2023-06-14T12:39:50.753Z,36.80
2023-06-14T12:42:18.253Z,36.50
2023-06-14T12:44:45.358Z,36.00
2023-06-14T12:47:12.322Z,35.20
2023-06-14T12:49:40.437Z,34.10
2023-06-14T12:52:08.417Z,34.30
2023-06-14T12:54:40.955Z,34.50
2023-06-14T12:57:08.942Z,34.50
2023-06-14T12:59:35.811Z,34.40
2023-06-14T13:02:13.901Z,33.90
2023-06-14T13:04:40.831Z,34.60
2023-06-14T13:07:07.796Z,33.40
2023-06-14T13:09:36.160Z,32.30
2023-06-14T13:12:03.192Z,31.20
2023-06-14T13:14:31.217Z,30.40
2023-06-14T13:16:58.090Z,29.90
2023-06-14T13:19:25.050Z,28.00
2023-06-14T13:21:51.872Z,27.20
2023-06-14T13:24:18.830Z,26.30
2023-06-14T13:26:47.108Z,25.60
2023-06-14T13:29:14.043Z,25.30
2023-06-14T13:31:41.117Z,25.10
2023-06-14T13:34:07.962Z,24.80
2023-06-14T13:36:34.895Z,24.50
2023-06-14T13:39:01.724Z,24.10
2023-06-14T13:41:29.572Z,24.00
2023-06-14T13:43:57.973Z,23.80
2023-06-14T13:46:25.076Z,23.80
2023-06-14T13:48:52.083Z,23.60
2023-06-14T13:51:19.263Z,23.80
2023-06-14T13:53:47.360Z,24.40
2023-06-14T13:56:14.177Z,25.20
2023-06-14T13:58:41.047Z,26.00
2023-06-14T14:01:09.576Z,26.50
2023-06-14T14:03:37.253Z,26.80
2023-06-14T14:06:05.592Z,26.50
2023-06-14T14:08:32.512Z,25.90
2023-06-14T14:10:59.902Z,25.10
2023-06-14T14:13:26.693Z,24.70
2023-06-14T14:15:53.566Z,24.10
2023-06-14T14:18:21.975Z,23.80
2023-06-14T14:20:49.179Z,23.80
2023-06-14T14:23:16.178Z,23.50
2023-06-14T14:25:43.076Z,23.30
2023-06-14T14:28:09.947Z,23.10
2023-06-14T14:30:36.872Z,23.30
2023-06-14T14:33:03.796Z,23.10
2023-06-14T14:35:32.061Z,23.00
2023-06-14T14:37:59.033Z,22.90
2023-06-14T14:40:25.924Z,22.60
2023-06-14T14:42:52.731Z,22.50
2023-06-14T14:45:19.512Z,22.70
2023-06-14T14:47:46.378Z,22.50
2023-06-14T14:50:13.260Z,22.30
2023-06-14T14:52:41.577Z,22.40
2023-06-14T14:55:09.443Z,22.50
2023-06-14T14:57:36.298Z,22.50
2023-06-14T15:00:03.825Z,22.50
2023-06-14T15:02:30.719Z,22.60
2023-06-14T15:04:57.522Z,22.80
2023-06-14T15:07:24.387Z,24.60
2023-06-14T15:09:52.533Z,25.70
2023-06-14T15:12:19.295Z,24.80
2023-06-14T15:14:46.181Z,24.70
2023-06-14T15:17:13.042Z,24.80
2023-06-14T15:19:40.054Z,25.10
2023-06-14T15:22:07.303Z,24.90
2023-06-14T15:24:43.486Z,24.60
2023-06-14T15:27:13.143Z,24.40
2023-06-14T15:29:40.211Z,24.40
2023-06-14T15:32:08.305Z,24.00
2023-06-14T15:34:35.370Z,24.40
2023-06-14T15:37:02.358Z,24.20
2023-06-14T15:39:30.161Z,24.10
2023-06-14T15:41:57.026Z,24.00
2023-06-14T15:44:25.210Z,24.20
2023-06-14T15:46:52.404Z,24.20
2023-06-14T15:49:19.384Z,24.10
2023-06-14T15:51:46.312Z,24.10
2023-06-14T15:54:13.181Z,24.20
2023-06-14T15:56:40.070Z,24.20
2023-06-14T15:59:07.410Z,24.30
2023-06-14T16:01:35.700Z,24.30
2023-06-14T16:04:02.559Z,24.40
2023-06-14T16:06:29.418Z,24.60
2023-06-14T16:08:56.265Z,24.60
2023-06-14T16:11:23.203Z,24.60
2023-06-14T16:13:50.072Z,24.50
2023-06-14T16:16:16.917Z,24.80
2023-06-14T16:18:45.143Z,25.60
2023-06-14T16:21:11.984Z,25.00
2023-06-14T16:23:38.850Z,25.00
2023-06-14T16:26:05.791Z,25.00
2023-06-14T16:28:32.853Z,25.50
2023-06-14T16:30:59.706Z,25.20
2023-06-14T16:33:26.504Z,25.20
2023-06-14T16:35:54.703Z,25.20
2023-06-14T16:38:21.616Z,25.00
2023-06-14T16:40:48.565Z,25.30
2023-06-14T16:43:15.408Z,25.20
2023-06-14T16:45:42.219Z,25.20
2023-06-14T16:48:09.107Z,25.30
2023-06-14T16:50:37.678Z,25.10
2023-06-14T16:53:06.793Z,24.80
2023-06-14T16:55:33.622Z,24.50
2023-06-14T16:58:00.395Z,24.60
2023-06-14T17:00:27.324Z,24.60
2023-06-14T17:02:54.543Z,24.60
2023-06-14T17:05:21.850Z,24.90
2023-06-14T17:07:48.758Z,25.00
2023-06-14T17:10:17.172Z,25.40
2023-06-14T17:12:44.273Z,24.90
2023-06-14T17:15:11.599Z,24.90
2023-06-14T17:17:38.467Z,24.90
2023-06-14T17:20:06.658Z,25.10
2023-06-14T17:22:33.584Z,25.50
2023-06-14T17:25:00.463Z,25.60
2023-06-14T17:27:28.793Z,25.50
2023-06-14T17:29:55.588Z,25.70
2023-06-14T17:32:22.525Z,25.90
2023-06-14T17:34:49.350Z,26.40
2023-06-14T17:37:16.155Z,26.70
2023-06-14T17:39:43.093Z,27.10
2023-06-14T17:42:09.995Z,27.40
2023-06-14T17:44:38.251Z,27.30
2023-06-14T17:47:05.458Z,27.00
2023-06-14T17:49:32.309Z,27.80
2023-06-14T17:51:59.117Z,28.00
2023-06-14T17:54:25.910Z,28.40
2023-06-14T17:56:52.702Z,28.30
2023-06-14T17:59:19.608Z,29.20
2023-06-14T18:01:47.938Z,29.20
2023-06-14T18:04:15.015Z,29.60
2023-06-14T18:06:41.812Z,30.00
2023-06-14T18:09:08.580Z,29.90
2023-06-14T18:11:35.388Z,30.20
2023-06-14T18:14:02.245Z,30.50
2023-06-14T18:16:29.133Z,30.70
2023-06-14T18:18:57.385Z,31.40
2023-06-14T18:21:24.292Z,33.00
2023-06-14T18:23:51.427Z,33.40
2023-06-14T18:26:18.326Z,33.80
2023-06-14T18:28:45.292Z,34.30
2023-06-14T18:31:12.116Z,34.60
2023-06-14T18:33:38.983Z,34.80
2023-06-14T18:36:07.341Z,34.90
2023-06-14T18:38:34.182Z,35.60
2023-06-14T18:41:00.990Z,36.00
2023-06-14T18:43:27.786Z,35.80
2023-06-14T18:45:54.702Z,35.70
2023-06-14T18:48:21.676Z,36.30
2023-06-14T18:50:48.730Z,37.10
2023-06-14T18:53:17.026Z,38.10
2023-06-14T18:55:44.052Z,39.50
2023-06-14T18:58:10.890Z,40.20
2023-06-14T19:00:37.923Z,41.10
2023-06-14T19:03:04.944Z,41.90
2023-06-14T19:05:31.823Z,43.50
2023-06-14T19:07:58.791Z,43.50
2023-06-14T19:10:27.115Z,44.30
2023-06-14T19:12:54.004Z,45.00
2023-06-14T19:15:20.977Z,45.80
2023-06-14T19:17:57.631Z,46.30
2023-06-14T19:20:25.530Z,46.80
2023-06-14T19:22:52.625Z,47.10
2023-06-14T19:25:19.731Z,47.60
2023-06-14T19:27:48.886Z,48.30
2023-06-14T19:30:15.957Z,48.60
2023-06-14T19:32:42.820Z,48.60
2023-06-14T19:35:10.271Z,49.30
2023-06-14T19:37:40.287Z,49.70
2023-06-14T19:40:08.879Z,49.80
2023-06-14T19:42:35.719Z,50.10
2023-06-14T19:45:04.504Z,50.40
2023-06-14T19:47:31.395Z,51.20
2023-06-14T19:49:58.245Z,51.30
2023-06-14T19:52:25.044Z,51.60
2023-06-14T19:54:51.912Z,51.70
2023-06-14T19:57:18.731Z,52.00
2023-06-14T19:59:45.551Z,52.50
2023-06-14T20:02:13.769Z,52.60
2023-06-14T20:04:40.587Z,52.80
2023-06-14T20:07:07.447Z,52.80
2023-06-14T20:09:34.599Z,52.50
2023-06-14T20:12:02.070Z,52.90
2023-06-14T20:14:29.310Z,52.90
2023-06-14T20:16:56.801Z,53.10
2023-06-14T20:19:24.984Z,53.30
2023-06-14T20:21:51.880Z,53.50
2023-06-14T20:24:18.973Z,53.80
2023-06-14T20:26:45.901Z,53.80
2023-06-14T20:29:12.707Z,54.40
2023-06-14T20:31:39.543Z,54.20
2023-06-14T20:34:06.390Z,54.50
2023-06-14T20:36:34.563Z,54.50
2023-06-14T20:39:02.889Z,54.90
2023-06-14T20:41:29.757Z,55.00
2023-06-14T20:43:56.580Z,55.10
2023-06-14T20:46:23.495Z,55.40
2023-06-14T20:48:50.289Z,55.70
2023-06-14T20:51:17.112Z,56.50
2023-06-14T20:53:45.345Z,55.90
2023-06-14T20:56:13.157Z,56.00
2023-06-14T20:58:40.100Z,56.10
2023-06-14T21:01:06.941Z,56.30
2023-06-14T21:03:33.848Z,56.40
2023-06-14T21:06:01.431Z,56.50
2023-06-14T21:08:28.258Z,56.70
2023-06-14T21:10:56.412Z,56.80
2023-06-14T21:13:23.332Z,56.90
2023-06-14T21:15:50.372Z,57.10
2023-06-14T21:18:18.563Z,57.40
2023-06-14T21:20:45.427Z,57.20
2023-06-14T21:23:12.277Z,57.40
2023-06-14T21:25:40.153Z,57.20
2023-06-14T21:30:53.622Z,57.40
2023-06-14T21:39:08.091Z,56.00
2023-06-14T21:41:40.478Z,57.20
2023-06-14T21:44:15.687Z,57.00
2023-06-14T21:46:49.902Z,57.40
2023-06-14T21:49:20.520Z,57.40
2023-06-14T21:51:58.057Z,57.70
2023-06-14T21:54:27.321Z,57.40
2023-06-14T21:56:58.017Z,57.70
2023-06-14T21:59:25.560Z,57.90
2023-06-14T22:05:47.159Z,58.60
2023-06-14T22:08:23.131Z,58.60
2023-06-14T22:10:51.029Z,59.80
2023-06-14T22:13:20.942Z,59.70
2023-06-14T22:15:48.385Z,60.40
2023-06-14T22:18:19.045Z,60.30
2023-06-14T22:20:52.007Z,61.10
2023-06-14T22:23:21.579Z,61.60
2023-06-14T22:25:59.145Z,61.70
2023-06-14T22:28:30.722Z,62.00
2023-06-14T22:31:01.000Z,62.50
2023-06-14T22:33:28.484Z,62.40
2023-06-14T22:35:57.942Z,62.80
2023-06-14T22:38:39.168Z,62.60
2023-06-14T22:41:11.454Z,63.00
2023-06-14T22:43:45.503Z,63.40
2023-06-14T22:46:13.035Z,63.60
2023-06-14T22:48:42.306Z,64.20
2023-06-14T22:51:09.429Z,64.00
2023-06-14T22:53:40.469Z,64.30
2023-06-14T22:56:11.940Z,64.20
2023-06-14T22:58:40.021Z,64.30
2023-06-14T23:01:08.950Z,65.00
2023-06-14T23:03:36.416Z,64.80
2023-06-14T23:06:03.980Z,65.00
2023-06-14T23:11:16.900Z,65.50
2023-06-14T23:13:46.842Z,65.90
2023-06-14T23:16:14.024Z,65.80
2023-06-14T23:18:41.925Z,66.20
2023-06-14T23:21:08.971Z,66.60
2023-06-14T23:23:36.069Z,67.00
2023-06-14T23:26:03.351Z,67.20
2023-06-14T23:28:31.968Z,67.30
2023-06-14T23:30:58.925Z,68.40
2023-06-14T23:33:25.890Z,68.40
2023-06-14T23:35:53.194Z,68.60
2023-06-14T23:38:20.601Z,69.10
2023-06-14T23:40:47.592Z,69.20
2023-06-14T23:43:14.542Z,69.80
2023-06-14T23:45:43.348Z,69.70
2023-06-14T23:48:10.352Z,69.40
2023-06-14T23:50:37.643Z,69.60
2023-06-14T23:53:04.564Z,69.60
2023-06-14T23:55:31.645Z,69.80
2023-06-14T23:57:58.586Z,69.90
